Time;durP1;ratioP1;P1;durP2;ratioP2;P2;SDS_P1;SDS_P2;PMS_P1;PMS_P2;Temp;Humidity;BMP_temperature;BMP_pressure;BME280_temperature;BME280_humidity;BME280_pressure;Samples;Min_cycle;Max_cycle;Signal;HPM_P1;HPM_P2
2023/04/07 00:02:06;;;;;;;;;;;;;;;30.23;64.77;101053.94;5076381;27;69682;-41
2023/04/07 00:04:36;;;;;;;;;;;;;;;30.28;64.71;101056.84;5073124;27;66385;-44
2023/04/07 00:07:07;;;;;;;;;;;;;;;30.34;65.54;101065.13;5076699;27;69295;-42
2023/04/07 00:09:37;;;;;;;;;;;;;;;30.32;67.10;101064.53;5076777;27;66623;-42
2023/04/07 00:12:08;;;;;;;;;;;;;;;30.32;69.15;101067.25;5076549;28;70350;-45
2023/04/07 00:14:38;;;;;;;;;;;;;;;30.33;67.22;101074.31;5077034;27;66712;-43
2023/04/07 00:17:08;;;;;;;;;;;;;;;30.34;69.04;101076.81;5077044;27;70012;-43
2023/04/07 00:19:38;;;;;;;;;;;;;;;30.37;65.01;101087.22;5075755;27;67128;-42
2023/04/07 00:22:08;;;;;;;;;;;;;;;30.40;63.46;101086.78;5058106;28;69270;-43
2023/04/07 00:24:38;;;;;;;;;;;;;;;30.43;63.35;101093.66;5078277;28;66413;-43
2023/04/07 00:27:14;;;;;;;;;;;;;;;30.46;62.55;101093.22;5076226;28;69873;-42
2023/04/07 00:29:45;;;;;;;;;;;;;;;30.49;62.24;101106.34;5058827;28;65821;-42
2023/04/07 00:32:16;;;;;;;;;;;;;;;30.26;62.12;101064.34;5057285;28;70456;-43
2023/04/07 00:34:46;;;;;;;;;;;;;;;30.55;61.74;101110.06;5088383;27;66871;-42
2023/04/07 00:37:16;;;;;;;;;;;;;;;30.57;61.92;101113.41;5076406;27;69985;-43
2023/04/07 00:39:47;;;;;;;;;;;;;;;30.59;61.62;101120.28;5054673;28;66374;-44
2023/04/07 00:42:17;;;;;;;;;;;;;;;30.60;61.34;101116.50;5074957;27;70307;-42
2023/04/07 00:44:47;;;;;;;;;;;;;;;30.63;61.01;101117.97;5074777;27;65662;-44
2023/04/07 00:47:17;;;;;;;;;;;;;;;30.64;61.00;101115.03;5073623;27;70080;-43
2023/04/07 00:49:48;;;;;;;;;;;;;;;30.67;60.48;101125.44;5091123;27;65938;-43
2023/04/07 00:52:18;;;;;;;;;;;;;;;30.68;60.71;101127.09;5075284;27;70293;-44
2023/04/07 00:54:48;;;;;;;;;;;;;;;30.71;60.34;101136.69;5075110;27;66285;-43
2023/04/07 00:57:19;;;;;;;;;;;;;;;30.72;60.25;101127.50;5057203;28;70700;-44
2023/04/07 00:59:50;;;;;;;;;;;;;;;30.73;60.45;101135.44;5060413;27;66138;-43
2023/04/07 01:02:22;;;;;;;;;;;;;;;30.76;59.89;101138.72;5075862;27;70559;-42
2023/04/07 01:04:58;;;;;;;;;;;;;;;30.76;60.04;101139.59;5060956;27;66299;-43
2023/04/07 01:07:32;;;;;;;;;;;;;;;30.80;59.91;101145.44;5080851;27;70730;-42
2023/04/07 01:10:15;;;;;;;;;;;;;;;30.82;59.67;101148.78;5061290;28;58608;-42
2023/04/07 01:13:13;;;;;;;;;;;;;;;30.84;60.17;101146.66;5054442;28;68706;-42
2023/04/07 01:15:46;;;;;;;;;;;;;;;30.86;59.57;101144.56;5092402;27;66825;-43
2023/04/07 01:18:22;;;;;;;;;;;;;;;30.88;59.42;101142.50;5094985;27;69825;-42
2023/04/07 01:23:51;;;;;;;;;;;;;;;30.91;59.28;101144.75;5040791;27;68973;-43
2023/04/07 01:26:50;;;;;;;;;;;;;;;30.93;59.69;101146.22;5074392;27;66530;-43
2023/04/07 01:29:36;;;;;;;;;;;;;;;30.96;59.37;101161.22;5074402;27;69853;-43
2023/04/07 01:32:09;;;;;;;;;;;;;;;30.98;59.11;101152.84;5077154;27;66357;-42
2023/04/07 01:34:40;;;;;;;;;;;;;;;31.00;59.06;101157.00;5059971;27;69131;-42
2023/04/07 01:37:11;;;;;;;;;;;;;;;31.02;59.42;101160.34;5077579;27;66321;-42
2023/04/07 01:39:42;;;;;;;;;;;;;;;30.61;59.42;101082.13;5076039;27;69388;-42
2023/04/07 01:42:13;;;;;;;;;;;;;;;31.05;58.88;101159.91;5044622;27;66118;-44
2023/04/07 01:44:44;;;;;;;;;;;;;;;31.08;59.25;101154.06;5077273;27;69575;-43
2023/04/07 01:47:15;;;;;;;;;;;;;;;31.10;59.23;101151.97;5077119;27;66570;-42
2023/04/07 01:49:46;;;;;;;;;;;;;;;31.13;58.72;101158.84;5078701;27;70261;-43
2023/04/07 01:52:17;;;;;;;;;;;;;;;31.15;59.08;101159.47;5076638;27;65283;-43
2023/04/07 01:54:47;;;;;;;;;;;;;;;31.19;58.77;101157.16;5070215;28;70056;-43
2023/04/07 01:57:17;;;;;;;;;;;;;;;31.22;59.00;101154.84;5079818;27;66310;-42
2023/04/07 01:59:52;;;;;;;;;;;;;;;31.25;58.52;101159.00;5062387;27;70207;-42
2023/04/07 02:02:25;;;;;;;;;;;;;;;31.26;58.62;101161.50;5062553;27;67174;-42
2023/04/07 02:05:04;;;;;;;;;;;;;;;31.28;58.81;101159.38;5076177;27;70060;-42
2023/04/07 02:07:56;;;;;;;;;;;;;;;31.33;58.88;101161.47;5056404;28;67083;-43
2023/04/07 02:10:28;;;;;;;;;;;;;;;31.35;58.52;101159.38;5076992;28;70362;-42
2023/04/07 02:13:03;;;;;;;;;;;;;;;31.37;58.55;101158.13;5074473;27;65737;-42
2023/04/07 02:15:33;;;;;;;;;;;;;;;31.40;58.75;101156.88;5073385;27;69945;-42
2023/04/07 02:18:05;;;;;;;;;;;;;;;31.44;58.70;101158.09;5092509;27;66566;-42
2023/04/07 02:20:36;;;;;;;;;;;;;;;31.46;58.79;101155.16;5074531;27;70451;-42
2023/04/07 02:23:09;;;;;;;;;;;;;;;31.49;58.80;101155.56;5078621;27;66117;-42
2023/04/07 02:25:39;;;;;;;;;;;;;;;31.52;58.72;101149.69;5059020;28;69438;-42
2023/04/07 02:28:09;;;;;;;;;;;;;;;31.56;59.10;101158.22;5077097;27;66962;-42
2023/04/07 02:30:40;;;;;;;;;;;;;;;31.58;58.92;101154.25;5077878;28;70083;-43
2023/04/07 02:33:10;;;;;;;;;;;;;;;31.61;58.65;101152.97;5058074;28;66334;-41
2023/04/07 02:35:43;;;;;;;;;;;;;;;31.65;58.67;101148.78;5078386;27;70276;-43
2023/04/07 02:38:13;;;;;;;;;;;;;;;31.68;58.63;101142.06;5086448;27;66167;-41
2023/04/07 02:40:43;;;;;;;;;;;;;;;31.71;58.70;101141.66;5075895;27;69467;-41
2023/04/07 02:43:16;;;;;;;;;;;;;;;31.74;58.57;101136.63;5069918;27;65391;-41
2023/04/07 02:45:46;;;;;;;;;;;;;;;31.77;58.44;101141.59;5059193;28;70179;-42
2023/04/07 02:48:17;;;;;;;;;;;;;;;31.80;58.36;101137.63;5075338;27;65902;-42
2023/04/07 02:50:47;;;;;;;;;;;;;;;31.83;58.05;101140.72;5075733;27;69552;-41
2023/04/07 02:53:17;;;;;;;;;;;;;;;31.87;58.48;101130.22;5075385;27;66448;-43
2023/04/07 02:55:47;;;;;;;;;;;;;;;31.90;58.36;101132.53;5071990;27;69042;-41
2023/04/07 02:58:17;;;;;;;;;;;;;;;31.93;58.22;101129.41;5062341;27;64981;-44
2023/04/07 03:00:48;;;;;;;;;;;;;;;31.96;57.89;101128.13;5076410;27;69789;-42
2023/04/07 03:03:22;;;;;;;;;;;;;;;31.98;58.08;101126.88;5057695;27;67072;-41
2023/04/07 03:06:04;;;;;;;;;;;;;;;32.02;58.02;101127.25;5075027;27;69988;-42
2023/04/07 03:08:41;;;;;;;;;;;;;;;32.04;57.60;101125.16;5092442;27;66956;-42
2023/04/07 03:11:11;;;;;;;;;;;;;;;32.08;57.48;101125.53;5076308;27;71563;-42
2023/04/07 03:13:41;;;;;;;;;;;;;;;32.09;57.75;101116.31;5096345;27;66376;-42
2023/04/07 03:16:11;;;;;;;;;;;;;;;32.12;57.49;101115.88;5078482;27;70786;-42
2023/04/07 03:18:55;;;;;;;;;;;;;;;32.13;57.55;101117.53;5080210;27;66905;-42
2023/04/07 03:21:27;;;;;;;;;;;;;;;32.17;57.39;101110.59;5093201;27;71014;-42
2023/04/07 03:23:58;;;;;;;;;;;;;;;32.20;57.16;101119.13;5080584;27;65889;-43
2023/04/07 03:26:28;;;;;;;;;;;;;;;32.22;57.31;101108.88;5063126;27;69644;-41
2023/04/07 03:28:59;;;;;;;;;;;;;;;32.24;57.41;101109.50;5055244;28;66640;-42
2023/04/07 03:31:31;;;;;;;;;;;;;;;32.26;56.98;101107.38;5093947;27;70696;-42
2023/04/07 03:34:01;;;;;;;;;;;;;;;32.28;57.04;101093.56;5061528;27;66455;-42
2023/04/07 03:36:31;;;;;;;;;;;;;;;32.31;56.73;101093.13;5073732;27;70648;-41
2023/04/07 03:39:05;;;;;;;;;;;;;;;32.32;56.75;101092.09;5062353;27;67047;-42
2023/04/07 03:41:36;;;;;;;;;;;;;;;32.34;56.67;101087.25;5059827;27;72748;-42
2023/04/07 03:44:06;;;;;;;;;;;;;;;32.36;56.69;101085.13;5078171;27;67105;-42
2023/04/07 03:46:38;;;;;;;;;;;;;;;32.37;56.78;101075.91;5049898;28;70525;-43
2023/04/07 03:49:10;;;;;;;;;;;;;;;32.38;56.57;101077.59;5075549;27;65891;-42
2023/04/07 03:51:41;;;;;;;;;;;;;;;32.40;56.88;101078.22;5094186;27;70495;-42
2023/04/07 03:54:15;;;;;;;;;;;;;;;32.42;56.93;101078.78;5059346;27;65737;-41
2023/04/07 03:56:46;;;;;;;;;;;;;;;32.44;56.77;101076.69;5074259;27;70503;-42
2023/04/07 03:59:20;;;;;;;;;;;;;;;32.47;56.63;101075.44;5060244;27;65877;-43
2023/04/07 04:01:59;;;;;;;;;;;;;;;32.47;56.63;101076.28;5059923;28;70344;-40
2023/04/07 04:04:29;;;;;;;;;;;;;;;32.51;56.55;101075.81;5061322;28;65714;-42
2023/04/07 04:07:01;;;;;;;;;;;;;;;32.54;56.38;101069.94;5061628;28;69886;-41
2023/04/07 04:09:52;;;;;;;;;;;;;;;32.56;56.58;101062.38;5069233;28;65928;-41
2023/04/07 04:12:22;;;;;;;;;;;;;;;32.59;56.52;101067.34;5077460;27;70264;-42
2023/04/07 04:15:03;;;;;;;;;;;;;;;32.62;56.48;101058.75;5058023;28;66882;-42
2023/04/07 04:17:34;;;;;;;;;;;;;;;32.63;56.52;101058.53;5095162;27;70374;-42
2023/04/07 04:20:06;;;;;;;;;;;;;;;32.66;56.46;101040.97;5055460;28;65600;-42
2023/04/07 04:22:49;;;;;;;;;;;;;;;32.67;56.38;101042.59;5055820;28;70359;-43
2023/04/07 04:25:20;;;;;;;;;;;;;;;32.69;56.32;101037.78;5076776;27;66849;-43
2023/04/07 04:27:54;;;;;;;;;;;;;;;32.73;56.33;101036.25;5077600;27;70804;-42
2023/04/07 04:30:27;;;;;;;;;;;;;;;32.76;56.07;101032.25;5065929;27;66996;-42
2023/04/07 04:33:02;;;;;;;;;;;;;;;32.77;55.78;101026.59;5059851;28;70318;-43
2023/04/07 04:35:41;;;;;;;;;;;;;;;32.80;56.24;101026.13;5071760;27;66253;-43
2023/04/07 04:38:15;;;;;;;;;;;;;;;32.84;55.97;101027.31;5060285;27;70537;-41
2023/04/07 04:40:53;;;;;;;;;;;;;;;32.86;55.85;101019.78;5079261;27;65364;-41
2023/04/07 04:43:30;;;;;;;;;;;;;;;32.89;55.99;101011.16;5084885;27;70212;-42
2023/04/07 04:46:02;;;;;;;;;;;;;;;32.91;56.06;101000.91;5074353;27;65758;-42
2023/04/07 04:48:38;;;;;;;;;;;;;;;32.94;55.68;100991.47;5089526;27;70695;-43
2023/04/07 04:51:09;;;;;;;;;;;;;;;32.78;55.96;100963.06;5075650;27;65406;-42
2023/04/07 04:53:41;;;;;;;;;;;;;;;33.00;55.78;100992.44;5078731;27;70575;-43
2023/04/07 04:56:12;;;;;;;;;;;;;;;33.01;55.80;100983.22;5059111;28;66650;-42
2023/04/07 04:58:46;;;;;;;;;;;;;;;33.05;55.77;100984.44;5059235;28;70114;-42
2023/04/07 05:01:25;;;;;;;;;;;;;;;33.07;55.52;100982.28;5060856;27;66956;-42
2023/04/07 05:04:03;;;;;;;;;;;;;;;33.10;55.47;100976.41;5060220;28;70213;-42
2023/04/07 05:06:35;;;;;;;;;;;;;;;33.11;55.44;100969.91;5056947;28;66558;-42
2023/04/07 05:09:09;;;;;;;;;;;;;;;33.13;55.46;100965.91;5059294;28;69394;-42
2023/04/07 05:11:44;;;;;;;;;;;;;;;33.16;55.51;100964.59;5058628;28;65617;-43
2023/04/07 05:14:15;;;;;;;;;;;;;;;33.19;55.40;100958.69;5058511;28;70336;-43
2023/04/07 05:16:53;;;;;;;;;;;;;;;33.19;55.07;100947.81;5051532;28;66711;-42
2023/04/07 05:19:28;;;;;;;;;;;;;;;33.22;55.38;100941.09;5058690;28;70574;-42
2023/04/07 05:22:05;;;;;;;;;;;;;;;33.24;55.19;100934.34;5058198;27;66983;-43
2023/04/07 05:24:43;;;;;;;;;;;;;;;33.26;55.00;100932.22;5091227;27;70186;-43
2023/04/07 05:27:13;;;;;;;;;;;;;;;33.30;55.01;100930.69;5087500;27;66567;-43
2023/04/07 05:29:45;;;;;;;;;;;;;;;33.33;54.91;100926.69;5056509;28;69554;-43
2023/04/07 05:32:25;;;;;;;;;;;;;;;33.35;54.98;100919.94;5061360;28;66845;-43
2023/04/07 05:34:57;;;;;;;;;;;;;;;33.37;54.96;100901.47;5057206;28;69699;-42
2023/04/07 05:37:32;;;;;;;;;;;;;;;33.40;54.76;100904.78;5074697;27;66957;-41
2023/04/07 05:40:05;;;;;;;;;;;;;;;33.42;54.98;100897.22;5090777;27;70232;-43
2023/04/07 05:42:35;;;;;;;;;;;;;;;33.44;54.87;100895.13;5074406;27;65862;-43
2023/04/07 05:45:06;;;;;;;;;;;;;;;33.46;54.67;100895.69;5059594;28;71169;-41
2023/04/07 05:47:40;;;;;;;;;;;;;;;33.49;54.79;100881.59;5061984;28;66626;-42
2023/04/07 05:50:12;;;;;;;;;;;;;;;33.50;54.69;100873.22;5057329;27;70680;-42
2023/04/07 05:52:45;;;;;;;;;;;;;;;33.54;54.51;100863.56;5059524;28;66711;-44
2023/04/07 05:55:21;;;;;;;;;;;;;;;33.35;54.66;100822.06;5058945;27;70409;-42
2023/04/07 05:57:53;;;;;;;;;;;;;;;33.59;54.66;100854.66;5089216;27;67241;-42
2023/04/07 06:00:27;;;;;;;;;;;;;;;33.61;54.30;100847.09;5071989;27;70207;-42
2023/04/07 06:03:04;;;;;;;;;;;;;;;33.65;54.22;100842.00;5056523;27;66657;-42
2023/04/07 06:05:47;;;;;;;;;;;;;;;33.68;54.47;100845.06;5065181;28;69139;-42
2023/04/07 06:08:20;;;;;;;;;;;;;;;33.71;54.31;100832.88;5056616;28;66230;-42
2023/04/07 06:10:51;;;;;;;;;;;;;;;33.72;54.23;100827.22;5060067;28;69991;-43
2023/04/07 06:13:21;;;;;;;;;;;;;;;33.74;54.28;100827.81;5075201;27;66149;-43
2023/04/07 06:15:54;;;;;;;;;;;;;;;33.75;54.19;100818.56;5074633;27;70066;-43
2023/04/07 06:18:24;;;;;;;;;;;;;;;33.79;54.41;100814.31;5048732;27;65563;-42
2023/04/07 06:20:55;;;;;;;;;;;;;;;33.81;54.05;100803.16;5056612;27;69803;-42
2023/04/07 06:23:26;;;;;;;;;;;;;;;33.83;53.92;100798.31;5055725;28;67132;-42
2023/04/07 06:25:57;;;;;;;;;;;;;;;33.85;54.14;100798.06;5078679;27;69181;-42
2023/04/07 06:28:30;;;;;;;;;;;;;;;33.88;53.96;100794.84;5057977;27;66572;-43
2023/04/07 06:31:01;;;;;;;;;;;;;;;33.90;54.00;100784.56;5078048;27;70422;-43
2023/04/07 06:33:31;;;;;;;;;;;;;;;33.92;53.77;100794.13;5067082;27;65775;-43
2023/04/07 06:36:02;;;;;;;;;;;;;;;33.95;54.14;100788.19;5057317;28;70115;-41
2023/04/07 06:38:32;;;;;;;;;;;;;;;33.97;53.69;100777.06;5077952;27;66536;-42
2023/04/07 06:41:02;;;;;;;;;;;;;;;33.99;53.93;100774.91;5060321;27;69283;-42
2023/04/07 06:43:33;;;;;;;;;;;;;;;34.01;53.75;100770.06;5077680;27;66143;-42
2023/04/07 06:46:04;;;;;;;;;;;;;;;34.06;53.91;100774.81;5061495;27;69193;-41
2023/04/07 06:48:35;;;;;;;;;;;;;;;34.08;53.61;100757.16;5078708;27;66756;-44
2023/04/07 06:51:05;;;;;;;;;;;;;;;34.12;53.58;100761.03;5076313;27;69943;-43
2023/04/07 06:53:35;;;;;;;;;;;;;;;34.14;53.45;100756.19;5077707;27;65491;-42
2023/04/07 06:56:09;;;;;;;;;;;;;;;34.18;53.40;100756.50;5073886;27;69828;-42
2023/04/07 06:58:40;;;;;;;;;;;;;;;34.20;53.08;100752.47;5073451;27;66519;-41
2023/04/07 07:01:10;;;;;;;;;;;;;;;34.25;53.38;100744.38;5075864;27;69870;-42
2023/04/07 07:03:40;;;;;;;;;;;;;;;34.29;53.10;100749.34;5074637;27;66606;-42
2023/04/07 07:06:10;;;;;;;;;;;;;;;34.31;53.29;100748.03;5076214;27;70085;-42
2023/04/07 07:08:40;;;;;;;;;;;;;;;34.35;52.92;100742.91;5076061;28;66076;-42
2023/04/07 07:11:10;;;;;;;;;;;;;;;34.39;53.19;100744.06;5073257;27;70346;-42
2023/04/07 07:13:41;;;;;;;;;;;;;;;34.41;52.84;100747.38;5070804;27;65760;-43
2023/04/07 07:16:12;;;;;;;;;;;;;;;34.44;52.96;100736.00;5078083;27;69621;-42
2023/04/07 07:18:42;;;;;;;;;;;;;;;34.50;52.86;100734.16;5074957;27;66453;-42
2023/04/07 07:21:15;;;;;;;;;;;;;;;34.54;52.73;100735.31;5056158;28;70955;-42
2023/04/07 07:23:45;;;;;;;;;;;;;;;34.55;52.65;100726.91;5071663;27;66651;-42
2023/04/07 07:26:16;;;;;;;;;;;;;;;34.58;52.97;100731.88;5078200;27;69747;-42
2023/04/07 07:28:46;;;;;;;;;;;;;;;34.62;52.38;100716.66;5071248;28;66563;-42
2023/04/07 07:31:17;;;;;;;;;;;;;;;34.66;52.29;100711.56;5078114;27;69628;-43
2023/04/07 07:33:48;;;;;;;;;;;;;;;34.71;52.70;100708.91;5076570;27;65275;-42
2023/04/07 07:36:18;;;;;;;;;;;;;;;34.76;52.43;100702.69;5074743;27;71734;-42
2023/04/07 07:38:50;;;;;;;;;;;;;;;34.80;52.57;100707.41;5078148;27;65622;-42
2023/04/07 07:41:20;;;;;;;;;;;;;;;34.60;52.27;100664.38;5075262;27;70576;-42
2023/04/07 07:43:50;;;;;;;;;;;;;;;34.88;51.83;100696.06;5074755;27;65577;-42
2023/04/07 07:46:22;;;;;;;;;;;;;;;34.91;52.24;100698.28;5059555;28;69575;-43
2023/04/07 07:48:52;;;;;;;;;;;;;;;34.95;52.11;100695.88;5076476;27;66916;-43
2023/04/07 07:51:23;;;;;;;;;;;;;;;35.00;51.60;100695.94;5079595;27;69744;-43
2023/04/07 07:53:53;;;;;;;;;;;;;;;35.03;51.77;100700.88;5080086;27;66619;-43
2023/04/07 07:56:23;;;;;;;;;;;;;;;35.07;51.47;100691.16;5078684;27;70051;-43
2023/04/07 07:58:53;;;;;;;;;;;;;;;35.12;51.59;100696.66;5081336;27;66743;-43
2023/04/07 08:01:26;;;;;;;;;;;;;;;35.17;51.65;100695.09;5078621;27;70785;-42
2023/04/07 08:03:56;;;;;;;;;;;;;;;35.22;51.07;100695.16;5065285;27;64916;-42
2023/04/07 08:06:28;;;;;;;;;;;;;;;35.24;51.01;100691.06;5080185;27;69689;-42
2023/04/07 08:08:58;;;;;;;;;;;;;;;35.29;51.29;100687.59;5080068;27;66915;-42
2023/04/07 08:11:28;;;;;;;;;;;;;;;35.31;51.14;100686.25;5078711;27;69879;-43
2023/04/07 08:13:59;;;;;;;;;;;;;;;35.36;50.62;100694.50;5077374;27;66328;-42
2023/04/07 08:16:29;;;;;;;;;;;;;;;35.40;50.95;100681.16;5078939;27;70190;-42
2023/04/07 08:19:00;;;;;;;;;;;;;;;35.44;50.28;100679.59;5079331;27;65363;-42
2023/04/07 08:21:30;;;;;;;;;;;;;;;35.50;50.12;100689.47;5080548;27;69492;-42
2023/04/07 08:24:00;;;;;;;;;;;;;;;35.53;50.12;100680.78;5079197;27;66421;-42
2023/04/07 08:26:31;;;;;;;;;;;;;;;35.57;50.53;100684.66;5043887;28;69609;-43
2023/04/07 08:29:01;;;;;;;;;;;;;;;35.61;50.43;100684.13;5079440;27;66449;-42
2023/04/07 08:31:32;;;;;;;;;;;;;;;35.66;50.00;100682.31;5078087;27;69380;-42
2023/04/07 08:34:02;;;;;;;;;;;;;;;35.70;50.10;100679.88;5060543;27;67106;-42
2023/04/07 08:36:32;;;;;;;;;;;;;;;35.75;49.54;100690.84;5078700;28;70348;-42
2023/04/07 08:39:04;;;;;;;;;;;;;;;35.79;49.86;100681.06;5077766;27;65455;-42
2023/04/07 08:41:38;;;;;;;;;;;;;;;35.83;49.23;100681.34;5075140;27;69571;-42
2023/04/07 08:44:09;;;;;;;;;;;;;;;35.87;49.68;100683.31;5074274;27;65584;-41
2023/04/07 08:46:40;;;;;;;;;;;;;;;35.90;48.96;100682.78;5078264;27;69975;-41
2023/04/07 08:49:12;;;;;;;;;;;;;;;35.93;48.80;100681.44;5090483;27;66149;-42
2023/04/07 08:51:46;;;;;;;;;;;;;;;35.96;48.79;100675.47;5077672;27;70654;-42
2023/04/07 08:54:21;;;;;;;;;;;;;;;35.97;49.31;100675.22;5075927;27;66183;-43
2023/04/07 08:56:51;;;;;;;;;;;;;;;36.00;48.63;100680.16;5078408;27;70331;-43
2023/04/07 08:59:25;;;;;;;;;;;;;;;36.02;48.95;100680.72;5081619;27;66464;-42
2023/04/07 09:01:56;;;;;;;;;;;;;;;36.05;48.61;100678.53;5072924;27;69958;-42
2023/04/07 09:04:26;;;;;;;;;;;;;;;36.08;48.43;100676.16;5080790;27;66572;-42
2023/04/07 09:06:56;;;;;;;;;;;;;;;36.10;48.50;100670.41;5078065;27;70401;-41
2023/04/07 09:09:27;;;;;;;;;;;;;;;36.13;48.21;100680.81;5073180;27;67015;-42
2023/04/07 09:11:57;;;;;;;;;;;;;;;36.14;48.57;100677.03;5080538;27;70458;-42
2023/04/07 09:14:27;;;;;;;;;;;;;;;36.13;48.21;100683.53;5054094;28;65069;-42
2023/04/07 09:16:59;;;;;;;;;;;;;;;36.15;48.46;100679.47;5079816;27;70649;-43
2023/04/07 09:19:29;;;;;;;;;;;;;;;35.92;49.12;100680.63;5079114;27;66523;-42
2023/04/07 09:22:00;;;;;;;;;;;;;;;35.72;49.87;100683.19;5077995;27;70152;-42
2023/04/07 09:24:33;;;;;;;;;;;;;;;35.58;49.83;100686.31;5079396;27;67120;-42
2023/04/07 09:27:12;;;;;;;;;;;;;;;35.46;50.94;100682.88;5078395;27;70116;-42
2023/04/07 09:29:45;;;;;;;;;;;;;;;35.40;50.78;100689.34;5079092;27;66258;-42
2023/04/07 09:32:40;;;;;;;;;;;;;;;35.37;51.07;100695.31;5068256;28;70640;-42
2023/04/07 09:35:11;;;;;;;;;;;;;;;35.34;51.56;100704.03;5079677;27;66496;-43
2023/04/07 09:37:41;;;;;;;;;;;;;;;35.29;51.28;100703.97;5080080;27;69950;-44
2023/04/07 09:40:12;;;;;;;;;;;;;;;35.22;51.93;100692.44;5060964;28;66485;-43
2023/04/07 09:42:45;;;;;;;;;;;;;;;35.22;51.85;100700.63;5080057;27;69354;-42
2023/04/07 09:45:23;;;;;;;;;;;;;;;35.19;51.64;100709.28;5080457;27;66250;-43
2023/04/07 09:48:05;;;;;;;;;;;;;;;35.14;52.04;100715.50;5077572;27;70890;-45
2023/04/07 09:50:36;;;;;;;;;;;;;;;35.14;51.86;100710.88;5090316;27;66373;-43
2023/04/07 09:53:06;;;;;;;;;;;;;;;35.10;52.18;100707.03;5092243;27;70126;-43
2023/04/07 09:55:39;;;;;;;;;;;;;;;35.07;52.20;100712.94;5063156;28;65895;-43
2023/04/07 09:58:12;;;;;;;;;;;;;;;35.04;52.57;100713.44;5057611;27;69108;-44
2023/04/07 10:00:43;;;;;;;;;;;;;;;35.00;52.58;100712.31;5074199;27;66388;-43
2023/04/07 10:03:14;;;;;;;;;;;;;;;34.96;53.08;100705.69;5077880;27;69876;-43
2023/04/07 10:05:45;;;;;;;;;;;;;;;34.94;53.15;100702.41;5071381;28;66845;-44
2023/04/07 10:08:16;;;;;;;;;;;;;;;34.93;52.68;100708.94;5051437;28;70648;-43
2023/04/07 10:10:49;;;;;;;;;;;;;;;34.91;53.25;100708.38;5061415;28;66018;-50
2023/04/07 10:13:20;;;;;;;;;;;;;;;34.88;53.23;100708.84;5075855;27;70630;-44
2023/04/07 10:15:50;;;;;;;;;;;;;;;34.85;53.41;100706.63;5059404;28;66715;-43
2023/04/07 10:18:22;;;;;;;;;;;;;;;34.81;53.88;100719.94;5044145;28;70053;-43
2023/04/07 10:20:53;;;;;;;;;;;;;;;34.80;54.02;100722.91;5074449;27;66095;-44
2023/04/07 10:23:47;;;;;;;;;;;;;;;34.72;54.04;100737.00;5070280;27;69816;-44
2023/04/07 10:26:22;;;;;;;;;;;;;;;34.63;54.63;100734.69;5069206;27;67120;-43
2023/04/07 10:28:55;;;;;;;;;;;;;;;34.58;54.78;100747.41;5079778;27;70115;-43
2023/04/07 10:31:26;;;;;;;;;;;;;;;34.52;55.24;100759.25;5059643;28;66004;-43
2023/04/07 10:33:56;;;;;;;;;;;;;;;34.48;55.09;100758.91;5074319;27;70281;-43
2023/04/07 10:36:28;;;;;;;;;;;;;;;34.44;56.01;100757.78;5078590;27;64969;-42
2023/04/07 10:39:07;;;;;;;;;;;;;;;34.39;57.04;100750.34;5078730;27;69220;-44
2023/04/07 10:41:40;;;;;;;;;;;;;;;34.38;56.80;100748.69;5078237;27;65564;-44
2023/04/07 10:44:31;;;;;;;;;;;;;;;34.36;57.28;100744.56;5077476;27;69904;-45
2023/04/07 10:47:03;;;;;;;;;;;;;;;34.38;57.18;100758.75;5071790;27;65579;-44
2023/04/07 10:49:34;;;;;;;;;;;;;;;34.35;56.84;100753.78;5077932;28;69470;-46
2023/04/07 10:52:10;;;;;;;;;;;;;;;34.32;57.28;100767.91;5033463;27;66294;-44
2023/04/07 10:54:41;;;;;;;;;;;;;;;34.31;57.03;100766.25;5060375;27;70377;-43
2023/04/07 10:57:13;;;;;;;;;;;;;;;34.28;57.62;100772.22;5091341;27;66011;-45
2023/04/07 11:00:01;;;;;;;;;;;;;;;34.32;57.09;100776.06;5070888;28;68716;-45
2023/04/07 11:02:32;;;;;;;;;;;;;;;34.49;56.44;100782.34;5076260;27;65293;-44
2023/04/07 11:05:03;;;;;;;;;;;;;;;34.60;56.38;100784.22;5077704;27;69878;-44
2023/04/07 11:07:43;;;;;;;;;;;;;;;34.66;56.02;100785.94;5077848;27;64523;-45
2023/04/07 11:10:15;;;;;;;;;;;;;;;34.73;55.42;100793.13;5078181;27;69619;-42
2023/04/07 11:12:57;;;;;;;;;;;;;;;34.79;55.36;100803.00;5077963;27;66548;-46
2023/04/07 11:15:27;;;;;;;;;;;;;;;34.80;55.13;100799.19;5076337;27;69707;-44
2023/04/07 11:18:15;;;;;;;;;;;;;;;34.83;55.37;100804.19;5079123;27;66682;-44
2023/04/07 11:20:50;;;;;;;;;;;;;;;34.83;55.00;100805.00;5070876;27;69389;-49
2023/04/07 11:23:24;;;;;;;;;;;;;;;34.82;55.55;100803.34;5075391;27;66349;-44
2023/04/07 11:26:02;;;;;;;;;;;;;;;34.84;55.63;100812.09;5083260;27;69644;-45
2023/04/07 11:28:33;;;;;;;;;;;;;;;34.84;55.26;100817.53;5080937;27;66399;-44
2023/04/07 11:31:03;;;;;;;;;;;;;;;34.84;55.41;100816.72;5076547;27;70067;-45
2023/04/07 11:33:35;;;;;;;;;;;;;;;34.82;55.76;100829.75;5078544;27;66323;-44
2023/04/07 11:36:06;;;;;;;;;;;;;;;34.83;55.21;100839.63;5097207;27;70226;-44
2023/04/07 11:38:37;;;;;;;;;;;;;;;34.83;55.75;100836.88;5081252;27;65432;-44
2023/04/07 11:41:11;;;;;;;;;;;;;;;34.82;55.49;100835.22;5080342;27;70032;-45
2023/04/07 11:43:41;;;;;;;;;;;;;;;34.64;55.45;100811.78;5082009;27;67365;-43
2023/04/07 11:46:16;;;;;;;;;;;;;;;34.79;55.80;100846.63;5081308;27;70140;-45
2023/04/07 11:48:46;;;;;;;;;;;;;;;34.79;55.89;100852.06;5083201;27;66680;-46
2023/04/07 11:51:17;;;;;;;;;;;;;;;34.78;55.66;100855.88;5079464;27;69051;-46
2023/04/07 11:53:54;;;;;;;;;;;;;;;34.75;55.69;100859.09;5078614;27;66425;-45
2023/04/07 11:56:26;;;;;;;;;;;;;;;34.73;55.76;100858.50;5077529;27;69216;-45
2023/04/07 11:58:57;;;;;;;;;;;;;;;34.71;55.54;100858.75;5076699;27;65454;-46
2023/04/07 12:01:48;;;;;;;;;;;;;;;34.69;55.64;100853.56;5078044;27;70269;-45
2023/04/07 12:04:18;;;;;;;;;;;;;;;34.66;55.68;100864.94;5079582;28;66070;-45
2023/04/07 12:06:49;;;;;;;;;;;;;;;34.63;55.90;100865.44;5079201;27;70459;-43
2023/04/07 12:09:28;;;;;;;;;;;;;;;34.62;56.22;100861.06;5080623;27;66468;-43
2023/04/07 12:11:58;;;;;;;;;;;;;;;34.64;56.38;100883.44;5077244;27;69055;-46
2023/04/07 12:14:29;;;;;;;;;;;;;;;34.56;57.95;100886.56;5079777;28;66253;-44
2023/04/07 12:17:02;;;;;;;;;;;;;;;34.68;57.49;100889.22;5078019;27;70534;-43
2023/04/07 12:19:34;;;;;;;;;;;;;;;34.65;58.02;100892.44;5077584;28;65757;-44
2023/04/07 12:22:05;;;;;;;;;;;;;;;34.67;57.65;100893.84;5080909;27;69881;-44
2023/04/07 12:24:35;;;;;;;;;;;;;;;34.52;58.68;100899.00;5079598;27;66055;-45
2023/04/07 12:27:05;;;;;;;;;;;;;;;34.38;58.87;100905.78;5079013;27;69758;-43
2023/04/07 12:29:36;;;;;;;;;;;;;;;34.27;59.64;100907.53;5080130;27;65890;-45
2023/04/07 12:32:06;;;;;;;;;;;;;;;34.17;59.50;100910.84;5078982;27;70272;-45
2023/04/07 12:34:38;;;;;;;;;;;;;;;34.21;59.28;100914.78;5079832;27;65388;-44
2023/04/07 12:37:08;;;;;;;;;;;;;;;34.13;58.32;100889.78;5079769;27;70119;-45
2023/04/07 12:39:38;;;;;;;;;;;;;;;34.26;59.82;100920.28;5080227;27;67783;-44
2023/04/07 12:42:10;;;;;;;;;;;;;;;34.35;58.72;100918.03;5080329;27;70275;-43
2023/04/07 12:44:40;;;;;;;;;;;;;;;34.35;59.70;100919.91;5079207;27;66557;-44
2023/04/07 12:47:11;;;;;;;;;;;;;;;34.34;59.77;100934.59;5078905;27;70116;-43
2023/04/07 12:49:41;;;;;;;;;;;;;;;34.29;59.31;100935.31;5080329;27;66948;-48
2023/04/07 12:52:11;;;;;;;;;;;;;;;34.25;60.11;100943.16;5080211;27;69906;-44
2023/04/07 12:54:43;;;;;;;;;;;;;;;34.25;59.57;100945.88;5061910;28;66708;-44
2023/04/07 12:57:14;;;;;;;;;;;;;;;34.23;60.26;100947.19;5080080;27;70054;-45
2023/04/07 12:59:44;;;;;;;;;;;;;;;34.19;60.13;100948.75;5079853;27;65285;-43
2023/04/07 13:02:17;;;;;;;;;;;;;;;34.25;59.29;100956.75;5079765;27;69736;-44
2023/04/07 13:04:47;;;;;;;;;;;;;;;34.26;59.76;100950.25;5080204;28;66063;-44
2023/04/07 13:07:18;;;;;;;;;;;;;;;34.30;59.71;100963.38;5078801;27;69766;-43